sensor_id;sensor_type;location;lat;lon;timestamp;P1;durP1;ratioP1;P2;durP2;ratioP2
37407;SDS011;24866;50.248;8.252;2023-09-18T00:00:24;11.07;;;5.68;;
37407;SDS011;24866;50.248;8.252;2023-09-18T00:02:54;11.00;;;5.30;;
37407;SDS011;24866;50.248;8.252;2023-09-18T00:05:25;13.27;;;6.28;;
37407;SDS011;24866;50.248;8.252;2023-09-18T00:07:56;8.67;;;5.23;;
37407;SDS011;24866;50.248;8.252;2023-09-18T00:10:26;12.45;;;5.40;;
37407;SDS011;24866;50.248;8.252;2023-09-18T00:12:57;9.07;;;4.35;;
37407;SDS011;24866;50.248;8.252;2023-09-18T00:15:26;10.73;;;4.93;;
37407;SDS011;24866;50.248;8.252;2023-09-18T00:17:56;8.60;;;4.95;;
37407;SDS011;24866;50.248;8.252;2023-09-18T00:20:27;10.20;;;5.05;;
37407;SDS011;24866;50.248;8.252;2023-09-18T00:22:57;11.43;;;5.38;;
37407;SDS011;24866;50.248;8.252;2023-09-18T00:25:27;9.90;;;5.07;;
37407;SDS011;24866;50.248;8.252;2023-09-18T00:27:58;8.23;;;5.30;;
37407;SDS011;24866;50.248;8.252;2023-09-18T00:30:28;10.65;;;4.72;;
37407;SDS011;24866;50.248;8.252;2023-09-18T00:32:58;10.10;;;5.03;;
37407;SDS011;24866;50.248;8.252;2023-09-18T00:35:29;10.20;;;5.22;;
37407;SDS011;24866;50.248;8.252;2023-09-18T00:37:59;9.82;;;5.47;;
37407;SDS011;24866;50.248;8.252;2023-09-18T00:40:31;9.77;;;5.40;;
37407;SDS011;24866;50.248;8.252;2023-09-18T00:43:01;13.68;;;4.63;;
37407;SDS011;24866;50.248;8.252;2023-09-18T00:45:31;8.55;;;4.82;;
37407;SDS011;24866;50.248;8.252;2023-09-18T00:48:02;9.57;;;4.97;;
37407;SDS011;24866;50.248;8.252;2023-09-18T00:50:34;8.95;;;4.57;;
37407;SDS011;24866;50.248;8.252;2023-09-18T00:53:04;9.40;;;4.95;;
37407;SDS011;24866;50.248;8.252;2023-09-18T00:55:37;11.38;;;5.45;;
37407;SDS011;24866;50.248;8.252;2023-09-18T00:58:07;9.68;;;4.90;;
37407;SDS011;24866;50.248;8.252;2023-09-18T01:00:37;12.98;;;6.05;;
37407;SDS011;24866;50.248;8.252;2023-09-18T01:03:09;7.80;;;5.13;;
37407;SDS011;24866;50.248;8.252;2023-09-18T01:05:40;8.65;;;5.43;;
37407;SDS011;24866;50.248;8.252;2023-09-18T01:08:10;9.68;;;5.20;;
37407;SDS011;24866;50.248;8.252;2023-09-18T01:10:41;10.63;;;5.53;;
37407;SDS011;24866;50.248;8.252;2023-09-18T01:13:21;7.82;;;5.40;;
37407;SDS011;24866;50.248;8.252;2023-09-18T01:15:57;9.13;;;5.13;;
37407;SDS011;24866;50.248;8.252;2023-09-18T01:18:32;9.80;;;4.45;;
37407;SDS011;24866;50.248;8.252;2023-09-18T01:21:03;8.85;;;4.93;;
37407;SDS011;24866;50.248;8.252;2023-09-18T01:23:34;13.07;;;5.43;;
37407;SDS011;24866;50.248;8.252;2023-09-18T01:26:04;7.90;;;4.75;;
37407;SDS011;24866;50.248;8.252;2023-09-18T01:28:36;9.17;;;5.37;;
37407;SDS011;24866;50.248;8.252;2023-09-18T01:31:06;7.65;;;5.25;;
37407;SDS011;24866;50.248;8.252;2023-09-18T01:33:36;8.18;;;4.47;;
37407;SDS011;24866;50.248;8.252;2023-09-18T01:36:07;9.97;;;5.13;;
37407;SDS011;24866;50.248;8.252;2023-09-18T01:38:39;9.27;;;4.93;;
37407;SDS011;24866;50.248;8.252;2023-09-18T01:41:10;9.13;;;5.00;;
37407;SDS011;24866;50.248;8.252;2023-09-18T01:43:40;7.85;;;4.82;;
37407;SDS011;24866;50.248;8.252;2023-09-18T01:46:10;10.55;;;4.22;;
37407;SDS011;24866;50.248;8.252;2023-09-18T01:48:44;6.32;;;3.80;;
37407;SDS011;24866;50.248;8.252;2023-09-18T01:51:15;7.65;;;4.15;;
37407;SDS011;24866;50.248;8.252;2023-09-18T01:53:46;6.43;;;3.88;;
37407;SDS011;24866;50.248;8.252;2023-09-18T01:56:16;9.25;;;4.40;;
37407;SDS011;24866;50.248;8.252;2023-09-18T01:58:46;7.15;;;4.15;;
37407;SDS011;24866;50.248;8.252;2023-09-18T02:01:15;8.80;;;3.35;;
37407;SDS011;24866;50.248;8.252;2023-09-18T02:03:45;10.05;;;4.25;;
37407;SDS011;24866;50.248;8.252;2023-09-18T02:06:15;11.60;;;4.15;;
37407;SDS011;24866;50.248;8.252;2023-09-18T02:08:46;12.38;;;4.43;;
37407;SDS011;24866;50.248;8.252;2023-09-18T02:11:16;9.10;;;4.10;;
37407;SDS011;24866;50.248;8.252;2023-09-18T02:13:46;5.40;;;3.10;;
37407;SDS011;24866;50.248;8.252;2023-09-18T02:16:16;6.18;;;2.92;;
37407;SDS011;24866;50.248;8.252;2023-09-18T02:18:50;5.95;;;3.13;;
37407;SDS011;24866;50.248;8.252;2023-09-18T02:23:55;4.43;;;2.72;;
37407;SDS011;24866;50.248;8.252;2023-09-18T02:26:25;6.20;;;3.15;;
37407;SDS011;24866;50.248;8.252;2023-09-18T02:28:57;7.25;;;3.38;;
37407;SDS011;24866;50.248;8.252;2023-09-18T02:31:27;5.45;;;3.00;;
37407;SDS011;24866;50.248;8.252;2023-09-18T02:33:57;6.00;;;3.20;;
37407;SDS011;24866;50.248;8.252;2023-09-18T02:36:27;5.45;;;2.83;;
37407;SDS011;24866;50.248;8.252;2023-09-18T02:38:59;7.07;;;3.60;;
37407;SDS011;24866;50.248;8.252;2023-09-18T02:41:29;6.35;;;3.97;;
37407;SDS011;24866;50.248;8.252;2023-09-18T02:43:58;8.95;;;4.10;;
37407;SDS011;24866;50.248;8.252;2023-09-18T02:46:28;7.43;;;3.70;;
37407;SDS011;24866;50.248;8.252;2023-09-18T02:48:58;7.50;;;3.60;;
37407;SDS011;24866;50.248;8.252;2023-09-18T02:51:28;7.13;;;3.88;;
37407;SDS011;24866;50.248;8.252;2023-09-18T02:54:01;7.85;;;4.13;;
37407;SDS011;24866;50.248;8.252;2023-09-18T02:56:31;6.53;;;3.60;;
37407;SDS011;24866;50.248;8.252;2023-09-18T02:59:00;7.20;;;3.75;;
37407;SDS011;24866;50.248;8.252;2023-09-18T03:01:30;8.07;;;4.65;;
37407;SDS011;24866;50.248;8.252;2023-09-18T03:04:00;9.55;;;3.72;;
37407;SDS011;24866;50.248;8.252;2023-09-18T03:06:30;7.78;;;4.05;;
37407;SDS011;24866;50.248;8.252;2023-09-18T03:09:01;7.22;;;4.25;;
37407;SDS011;24866;50.248;8.252;2023-09-18T03:11:32;10.10;;;4.83;;
37407;SDS011;24866;50.248;8.252;2023-09-18T03:14:01;11.82;;;5.60;;
37407;SDS011;24866;50.248;8.252;2023-09-18T03:16:31;7.22;;;3.97;;
37407;SDS011;24866;50.248;8.252;2023-09-18T03:19:02;10.77;;;5.25;;
37407;SDS011;24866;50.248;8.252;2023-09-18T03:21:31;8.10;;;4.63;;
37407;SDS011;24866;50.248;8.252;2023-09-18T03:24:05;6.30;;;3.95;;
37407;SDS011;24866;50.248;8.252;2023-09-18T03:26:35;6.45;;;3.72;;
37407;SDS011;24866;50.248;8.252;2023-09-18T03:29:05;6.45;;;4.40;;
37407;SDS011;24866;50.248;8.252;2023-09-18T03:31:35;7.22;;;4.00;;
37407;SDS011;24866;50.248;8.252;2023-09-18T03:34:05;6.50;;;3.72;;
37407;SDS011;24866;50.248;8.252;2023-09-18T03:36:34;7.55;;;4.40;;
37407;SDS011;24866;50.248;8.252;2023-09-18T03:39:06;5.78;;;3.92;;
37407;SDS011;24866;50.248;8.252;2023-09-18T03:41:37;9.80;;;5.22;;
37407;SDS011;24866;50.248;8.252;2023-09-18T03:44:07;8.20;;;4.18;;
37407;SDS011;24866;50.248;8.252;2023-09-18T03:46:38;8.15;;;4.28;;
37407;SDS011;24866;50.248;8.252;2023-09-18T03:49:07;11.55;;;4.30;;
37407;SDS011;24866;50.248;8.252;2023-09-18T03:51:37;6.75;;;3.92;;
37407;SDS011;24866;50.248;8.252;2023-09-18T03:54:08;11.02;;;4.95;;
37407;SDS011;24866;50.248;8.252;2023-09-18T03:56:38;10.98;;;4.30;;
37407;SDS011;24866;50.248;8.252;2023-09-18T03:59:08;9.82;;;4.07;;
37407;SDS011;24866;50.248;8.252;2023-09-18T04:01:38;7.68;;;4.68;;
37407;SDS011;24866;50.248;8.252;2023-09-18T04:04:08;10.30;;;4.72;;
37407;SDS011;24866;50.248;8.252;2023-09-18T04:06:40;7.25;;;4.50;;
37407;SDS011;24866;50.248;8.252;2023-09-18T04:09:12;9.13;;;4.88;;
37407;SDS011;24866;50.248;8.252;2023-09-18T04:11:43;9.88;;;4.90;;
37407;SDS011;24866;50.248;8.252;2023-09-18T04:14:13;9.20;;;4.72;;
37407;SDS011;24866;50.248;8.252;2023-09-18T04:16:42;7.70;;;4.95;;
37407;SDS011;24866;50.248;8.252;2023-09-18T04:19:12;7.55;;;4.40;;
37407;SDS011;24866;50.248;8.252;2023-09-18T04:21:42;9.98;;;5.00;;
37407;SDS011;24866;50.248;8.252;2023-09-18T04:24:13;11.23;;;4.47;;
37407;SDS011;24866;50.248;8.252;2023-09-18T04:26:43;12.40;;;4.45;;
37407;SDS011;24866;50.248;8.252;2023-09-18T04:29:13;10.27;;;4.80;;
37407;SDS011;24866;50.248;8.252;2023-09-18T04:31:43;11.00;;;4.70;;
37407;SDS011;24866;50.248;8.252;2023-09-18T04:34:13;11.55;;;4.30;;
37407;SDS011;24866;50.248;8.252;2023-09-18T04:36:43;8.55;;;5.03;;
37407;SDS011;24866;50.248;8.252;2023-09-18T04:39:15;9.45;;;4.90;;
37407;SDS011;24866;50.248;8.252;2023-09-18T04:41:44;8.98;;;5.22;;
37407;SDS011;24866;50.248;8.252;2023-09-18T04:44:14;9.35;;;5.10;;
37407;SDS011;24866;50.248;8.252;2023-09-18T04:46:45;10.18;;;5.20;;
37407;SDS011;24866;50.248;8.252;2023-09-18T04:49:16;11.27;;;5.40;;
37407;SDS011;24866;50.248;8.252;2023-09-18T04:51:46;7.53;;;5.03;;
37407;SDS011;24866;50.248;8.252;2023-09-18T04:54:17;11.15;;;5.03;;
37407;SDS011;24866;50.248;8.252;2023-09-18T04:56:47;8.52;;;4.68;;
37407;SDS011;24866;50.248;8.252;2023-09-18T04:59:17;12.32;;;4.75;;
37407;SDS011;24866;50.248;8.252;2023-09-18T05:01:47;11.20;;;5.45;;
37407;SDS011;24866;50.248;8.252;2023-09-18T05:04:16;10.38;;;4.43;;
37407;SDS011;24866;50.248;8.252;2023-09-18T05:06:46;11.77;;;4.70;;
37407;SDS011;24866;50.248;8.252;2023-09-18T05:09:18;9.82;;;4.93;;
37407;SDS011;24866;50.248;8.252;2023-09-18T05:11:47;8.70;;;4.78;;
37407;SDS011;24866;50.248;8.252;2023-09-18T05:14:17;9.50;;;4.72;;
37407;SDS011;24866;50.248;8.252;2023-09-18T05:16:47;12.02;;;5.00;;
37407;SDS011;24866;50.248;8.252;2023-09-18T05:19:17;8.55;;;4.90;;
37407;SDS011;24866;50.248;8.252;2023-09-18T05:21:47;10.30;;;4.95;;
37407;SDS011;24866;50.248;8.252;2023-09-18T05:24:18;9.82;;;5.60;;
37407;SDS011;24866;50.248;8.252;2023-09-18T05:26:54;10.73;;;4.47;;
37407;SDS011;24866;50.248;8.252;2023-09-18T05:29:24;12.48;;;5.18;;
37407;SDS011;24866;50.248;8.252;2023-09-18T05:31:54;11.20;;;4.70;;
37407;SDS011;24866;50.248;8.252;2023-09-18T05:34:24;11.60;;;5.43;;
37407;SDS011;24866;50.248;8.252;2023-09-18T05:36:54;9.90;;;4.80;;
37407;SDS011;24866;50.248;8.252;2023-09-18T05:39:25;12.30;;;4.97;;
37407;SDS011;24866;50.248;8.252;2023-09-18T05:41:55;9.88;;;5.53;;
37407;SDS011;24866;50.248;8.252;2023-09-18T05:44:25;11.80;;;5.03;;
37407;SDS011;24866;50.248;8.252;2023-09-18T05:46:54;11.50;;;5.00;;
37407;SDS011;24866;50.248;8.252;2023-09-18T05:49:24;13.85;;;4.82;;
37407;SDS011;24866;50.248;8.252;2023-09-18T05:51:55;12.15;;;5.03;;
37407;SDS011;24866;50.248;8.252;2023-09-18T05:54:26;12.77;;;5.25;;
37407;SDS011;24866;50.248;8.252;2023-09-18T05:56:56;10.88;;;5.25;;
37407;SDS011;24866;50.248;8.252;2023-09-18T05:59:25;11.02;;;4.20;;
37407;SDS011;24866;50.248;8.252;2023-09-18T06:01:55;11.68;;;5.13;;
37407;SDS011;24866;50.248;8.252;2023-09-18T06:04:25;13.75;;;4.93;;
37407;SDS011;24866;50.248;8.252;2023-09-18T06:06:55;11.60;;;5.03;;
37407;SDS011;24866;50.248;8.252;2023-09-18T06:09:26;12.50;;;4.30;;
37407;SDS011;24866;50.248;8.252;2023-09-18T06:11:56;9.98;;;4.57;;
37407;SDS011;24866;50.248;8.252;2023-09-18T06:14:27;12.27;;;4.85;;
37407;SDS011;24866;50.248;8.252;2023-09-18T06:16:57;14.18;;;4.78;;
37407;SDS011;24866;50.248;8.252;2023-09-18T06:19:27;12.57;;;5.20;;
37407;SDS011;24866;50.248;8.252;2023-09-18T06:21:56;9.88;;;4.45;;
37407;SDS011;24866;50.248;8.252;2023-09-18T06:24:28;14.95;;;5.63;;
37407;SDS011;24866;50.248;8.252;2023-09-18T06:26:57;14.90;;;4.75;;
37407;SDS011;24866;50.248;8.252;2023-09-18T06:29:27;13.65;;;4.47;;
37407;SDS011;24866;50.248;8.252;2023-09-18T06:31:57;16.55;;;5.47;;
37407;SDS011;24866;50.248;8.252;2023-09-18T06:34:27;13.18;;;4.80;;
37407;SDS011;24866;50.248;8.252;2023-09-18T06:36:57;17.17;;;5.10;;
37407;SDS011;24866;50.248;8.252;2023-09-18T06:39:29;14.15;;;4.53;;
37407;SDS011;24866;50.248;8.252;2023-09-18T06:41:59;18.33;;;4.45;;
37407;SDS011;24866;50.248;8.252;2023-09-18T06:44:29;15.80;;;3.95;;
37407;SDS011;24866;50.248;8.252;2023-09-18T06:46:59;13.50;;;4.68;;
37407;SDS011;24866;50.248;8.252;2023-09-18T06:49:29;13.82;;;4.07;;
37407;SDS011;24866;50.248;8.252;2023-09-18T06:51:58;8.93;;;3.67;;
37407;SDS011;24866;50.248;8.252;2023-09-18T06:54:30;11.38;;;3.38;;
37407;SDS011;24866;50.248;8.252;2023-09-18T06:56:59;11.60;;;4.00;;
37407;SDS011;24866;50.248;8.252;2023-09-18T06:59:31;15.15;;;4.00;;
37407;SDS011;24866;50.248;8.252;2023-09-18T07:02:01;13.73;;;3.55;;
37407;SDS011;24866;50.248;8.252;2023-09-18T07:04:31;9.48;;;3.53;;
37407;SDS011;24866;50.248;8.252;2023-09-18T07:07:01;13.13;;;3.85;;
37407;SDS011;24866;50.248;8.252;2023-09-18T07:09:32;10.32;;;3.60;;
37407;SDS011;24866;50.248;8.252;2023-09-18T07:12:03;11.15;;;3.65;;
37407;SDS011;24866;50.248;8.252;2023-09-18T07:14:33;7.65;;;3.15;;
37407;SDS011;24866;50.248;8.252;2023-09-18T07:17:03;14.80;;;3.55;;
37407;SDS011;24866;50.248;8.252;2023-09-18T07:19:33;13.52;;;3.53;;
37407;SDS011;24866;50.248;8.252;2023-09-18T07:22:03;10.00;;;3.58;;
37407;SDS011;24866;50.248;8.252;2023-09-18T07:24:35;13.27;;;3.40;;
37407;SDS011;24866;50.248;8.252;2023-09-18T07:27:08;11.90;;;3.25;;
37407;SDS011;24866;50.248;8.252;2023-09-18T07:29:38;15.43;;;3.63;;
37407;SDS011;24866;50.248;8.252;2023-09-18T07:32:08;7.20;;;2.45;;
37407;SDS011;24866;50.248;8.252;2023-09-18T07:34:38;9.70;;;3.38;;
37407;SDS011;24866;50.248;8.252;2023-09-18T07:37:08;11.07;;;3.13;;
37407;SDS011;24866;50.248;8.252;2023-09-18T07:39:39;9.30;;;2.88;;
37407;SDS011;24866;50.248;8.252;2023-09-18T07:42:11;15.32;;;3.95;;
37407;SDS011;24866;50.248;8.252;2023-09-18T07:44:42;13.60;;;3.60;;
37407;SDS011;24866;50.248;8.252;2023-09-18T07:47:12;12.32;;;3.33;;
37407;SDS011;24866;50.248;8.252;2023-09-18T07:49:42;9.05;;;3.30;;
37407;SDS011;24866;50.248;8.252;2023-09-18T07:52:12;11.00;;;3.95;;
37407;SDS011;24866;50.248;8.252;2023-09-18T07:54:44;13.10;;;3.38;;
37407;SDS011;24866;50.248;8.252;2023-09-18T07:57:15;9.70;;;2.90;;
37407;SDS011;24866;50.248;8.252;2023-09-18T07:59:45;11.00;;;2.40;;
37407;SDS011;24866;50.248;8.252;2023-09-18T08:02:15;5.47;;;2.10;;
37407;SDS011;24866;50.248;8.252;2023-09-18T08:04:46;12.43;;;3.13;;
37407;SDS011;24866;50.248;8.252;2023-09-18T08:07:16;7.50;;;2.65;;
37407;SDS011;24866;50.248;8.252;2023-09-18T08:09:47;8.07;;;2.33;;
37407;SDS011;24866;50.248;8.252;2023-09-18T08:12:17;9.63;;;2.53;;
37407;SDS011;24866;50.248;8.252;2023-09-18T08:14:47;10.65;;;2.70;;
37407;SDS011;24866;50.248;8.252;2023-09-18T08:17:18;10.77;;;2.53;;
37407;SDS011;24866;50.248;8.252;2023-09-18T08:19:49;8.80;;;2.30;;
37407;SDS011;24866;50.248;8.252;2023-09-18T08:22:20;8.18;;;2.70;;
37407;SDS011;24866;50.248;8.252;2023-09-18T08:24:51;9.05;;;2.85;;
37407;SDS011;24866;50.248;8.252;2023-09-18T08:27:23;10.93;;;2.95;;
37407;SDS011;24866;50.248;8.252;2023-09-18T08:29:53;9.30;;;2.65;;
37407;SDS011;24866;50.248;8.252;2023-09-18T08:32:23;8.70;;;3.15;;
37407;SDS011;24866;50.248;8.252;2023-09-18T08:34:53;12.45;;;2.95;;
37407;SDS011;24866;50.248;8.252;2023-09-18T08:37:23;9.57;;;3.17;;
37407;SDS011;24866;50.248;8.252;2023-09-18T08:39:55;7.78;;;2.50;;
37407;SDS011;24866;50.248;8.252;2023-09-18T08:42:24;7.80;;;2.70;;
37407;SDS011;24866;50.248;8.252;2023-09-18T08:44:57;7.43;;;2.58;;
37407;SDS011;24866;50.248;8.252;2023-09-18T08:47:28;10.35;;;2.30;;
37407;SDS011;24866;50.248;8.252;2023-09-18T08:49:59;10.35;;;2.85;;
37407;SDS011;24866;50.248;8.252;2023-09-18T08:52:30;7.90;;;2.22;;
37407;SDS011;24866;50.248;8.252;2023-09-18T08:55:02;7.68;;;1.90;;
37407;SDS011;24866;50.248;8.252;2023-09-18T09:00:04;7.45;;;2.35;;
37407;SDS011;24866;50.248;8.252;2023-09-18T09:05:06;6.68;;;1.85;;
37407;SDS011;24866;50.248;8.252;2023-09-18T09:07:36;10.48;;;2.38;;
37407;SDS011;24866;50.248;8.252;2023-09-18T09:10:08;9.40;;;2.83;;
37407;SDS011;24866;50.248;8.252;2023-09-18T09:12:49;8.93;;;2.22;;
37407;SDS011;24866;50.248;8.252;2023-09-18T09:15:23;9.35;;;2.55;;
37407;SDS011;24866;50.248;8.252;2023-09-18T09:18:02;8.57;;;2.03;;
37407;SDS011;24866;50.248;8.252;2023-09-18T09:20:33;8.43;;;2.40;;
37407;SDS011;24866;50.248;8.252;2023-09-18T09:23:05;8.98;;;2.92;;
37407;SDS011;24866;50.248;8.252;2023-09-18T09:25:38;5.82;;;2.10;;
37407;SDS011;24866;50.248;8.252;2023-09-18T09:28:08;6.70;;;2.35;;
37407;SDS011;24866;50.248;8.252;2023-09-18T09:30:38;6.15;;;2.00;;
37407;SDS011;24866;50.248;8.252;2023-09-18T09:33:09;9.95;;;2.47;;
37407;SDS011;24866;50.248;8.252;2023-09-18T09:35:41;4.30;;;2.08;;
37407;SDS011;24866;50.248;8.252;2023-09-18T09:38:12;4.00;;;2.15;;
37407;SDS011;24866;50.248;8.252;2023-09-18T09:43:15;4.88;;;2.05;;
37407;SDS011;24866;50.248;8.252;2023-09-18T09:45:46;8.80;;;2.42;;
37407;SDS011;24866;50.248;8.252;2023-09-18T09:48:16;7.05;;;2.08;;
37407;SDS011;24866;50.248;8.252;2023-09-18T09:50:46;6.68;;;2.65;;
37407;SDS011;24866;50.248;8.252;2023-09-18T09:53:18;5.38;;;2.30;;
37407;SDS011;24866;50.248;8.252;2023-09-18T09:55:54;5.03;;;1.95;;
37407;SDS011;24866;50.248;8.252;2023-09-18T09:58:26;3.28;;;2.05;;
37407;SDS011;24866;50.248;8.252;2023-09-18T10:01:01;6.70;;;2.15;;
37407;SDS011;24866;50.248;8.252;2023-09-18T10:03:38;5.95;;;2.30;;
37407;SDS011;24866;50.248;8.252;2023-09-18T10:06:08;9.05;;;2.85;;
37407;SDS011;24866;50.248;8.252;2023-09-18T10:08:41;5.28;;;1.80;;
37407;SDS011;24866;50.248;8.252;2023-09-18T10:11:13;8.75;;;2.08;;
37407;SDS011;24866;50.248;8.252;2023-09-18T10:13:46;10.23;;;2.40;;
37407;SDS011;24866;50.248;8.252;2023-09-18T10:16:22;6.53;;;2.33;;
37407;SDS011;24866;50.248;8.252;2023-09-18T10:18:56;6.18;;;2.28;;
37407;SDS011;24866;50.248;8.252;2023-09-18T10:21:38;5.05;;;1.92;;
37407;SDS011;24866;50.248;8.252;2023-09-18T10:24:17;5.07;;;1.83;;
37407;SDS011;24866;50.248;8.252;2023-09-18T10:26:54;5.93;;;2.25;;
37407;SDS011;24866;50.248;8.252;2023-09-18T10:29:26;6.88;;;2.20;;
37407;SDS011;24866;50.248;8.252;2023-09-18T10:31:58;5.38;;;1.70;;
37407;SDS011;24866;50.248;8.252;2023-09-18T10:34:30;5.32;;;2.25;;
37407;SDS011;24866;50.248;8.252;2023-09-18T10:37:02;5.93;;;2.40;;
37407;SDS011;24866;50.248;8.252;2023-09-18T10:39:35;6.47;;;2.08;;
37407;SDS011;24866;50.248;8.252;2023-09-18T10:42:08;9.70;;;2.53;;
37407;SDS011;24866;50.248;8.252;2023-09-18T10:44:38;6.15;;;2.28;;
37407;SDS011;24866;50.248;8.252;2023-09-18T10:47:10;6.55;;;2.85;;
37407;SDS011;24866;50.248;8.252;2023-09-18T10:49:42;8.05;;;2.80;;
37407;SDS011;24866;50.248;8.252;2023-09-18T10:52:12;6.93;;;2.55;;
37407;SDS011;24866;50.248;8.252;2023-09-18T10:54:43;5.93;;;2.72;;
37407;SDS011;24866;50.248;8.252;2023-09-18T10:57:15;6.45;;;2.88;;
37407;SDS011;24866;50.248;8.252;2023-09-18T10:59:45;8.40;;;2.75;;
37407;SDS011;24866;50.248;8.252;2023-09-18T11:02:16;9.75;;;3.33;;
37407;SDS011;24866;50.248;8.252;2023-09-18T11:04:46;3.85;;;2.47;;
37407;SDS011;24866;50.248;8.252;2023-09-18T11:07:21;4.18;;;2.10;;
37407;SDS011;24866;50.248;8.252;2023-09-18T11:09:52;6.88;;;3.20;;
37407;SDS011;24866;50.248;8.252;2023-09-18T11:12:42;5.65;;;2.83;;
37407;SDS011;24866;50.248;8.252;2023-09-18T11:15:25;7.28;;;2.85;;
37407;SDS011;24866;50.248;8.252;2023-09-18T11:17:58;6.70;;;2.95;;
37407;SDS011;24866;50.248;8.252;2023-09-18T11:20:31;5.68;;;2.80;;
37407;SDS011;24866;50.248;8.252;2023-09-18T11:23:09;8.20;;;3.95;;
37407;SDS011;24866;50.248;8.252;2023-09-18T11:25:46;6.80;;;3.80;;
37407;SDS011;24866;50.248;8.252;2023-09-18T11:28:22;5.97;;;3.33;;
37407;SDS011;24866;50.248;8.252;2023-09-18T11:30:54;8.60;;;3.47;;
37407;SDS011;24866;50.248;8.252;2023-09-18T11:33:30;7.07;;;3.95;;
37407;SDS011;24866;50.248;8.252;2023-09-18T11:36:05;8.07;;;4.00;;
37407;SDS011;24866;50.248;8.252;2023-09-18T11:38:52;6.60;;;4.07;;
37407;SDS011;24866;50.248;8.252;2023-09-18T11:41:23;5.57;;;3.50;;
37407;SDS011;24866;50.248;8.252;2023-09-18T11:47:10;6.35;;;3.92;;
37407;SDS011;24866;50.248;8.252;2023-09-18T11:49:46;6.90;;;4.25;;
37407;SDS011;24866;50.248;8.252;2023-09-18T11:52:18;6.05;;;3.83;;
37407;SDS011;24866;50.248;8.252;2023-09-18T11:54:50;9.00;;;4.40;;
37407;SDS011;24866;50.248;8.252;2023-09-18T11:57:20;5.80;;;3.50;;
37407;SDS011;24866;50.248;8.252;2023-09-18T11:59:50;6.22;;;4.03;;
37407;SDS011;24866;50.248;8.252;2023-09-18T12:02:28;3.85;;;3.38;;
37407;SDS011;24866;50.248;8.252;2023-09-18T12:05:05;6.18;;;3.88;;
37407;SDS011;24866;50.248;8.252;2023-09-18T12:07:39;3.63;;;2.85;;
37407;SDS011;24866;50.248;8.252;2023-09-18T12:10:11;6.80;;;3.83;;
37407;SDS011;24866;50.248;8.252;2023-09-18T12:12:43;6.05;;;3.42;;
37407;SDS011;24866;50.248;8.252;2023-09-18T12:15:14;6.28;;;3.65;;
37407;SDS011;24866;50.248;8.252;2023-09-18T12:20:17;6.90;;;4.32;;
37407;SDS011;24866;50.248;8.252;2023-09-18T12:22:48;5.40;;;3.53;;
37407;SDS011;24866;50.248;8.252;2023-09-18T12:25:19;6.22;;;4.30;;
37407;SDS011;24866;50.248;8.252;2023-09-18T12:27:52;4.55;;;3.88;;
37407;SDS011;24866;50.248;8.252;2023-09-18T12:30:22;6.03;;;3.90;;
37407;SDS011;24866;50.248;8.252;2023-09-18T12:32:55;5.82;;;3.63;;
37407;SDS011;24866;50.248;8.252;2023-09-18T12:35:28;8.63;;;4.18;;
37407;SDS011;24866;50.248;8.252;2023-09-18T12:37:58;6.30;;;4.13;;
37407;SDS011;24866;50.248;8.252;2023-09-18T12:40:29;6.30;;;3.85;;
37407;SDS011;24866;50.248;8.252;2023-09-18T12:43:01;5.78;;;3.97;;
37407;SDS011;24866;50.248;8.252;2023-09-18T12:45:34;8.00;;;4.82;;
37407;SDS011;24866;50.248;8.252;2023-09-18T12:48:06;8.00;;;4.22;;
37407;SDS011;24866;50.248;8.252;2023-09-18T12:50:36;5.47;;;3.53;;
37407;SDS011;24866;50.248;8.252;2023-09-18T12:53:07;7.22;;;4.18;;
37407;SDS011;24866;50.248;8.252;2023-09-18T12:55:38;4.72;;;3.97;;
37407;SDS011;24866;50.248;8.252;2023-09-18T12:58:10;5.20;;;3.97;;
37407;SDS011;24866;50.248;8.252;2023-09-18T13:00:45;5.88;;;3.97;;
37407;SDS011;24866;50.248;8.252;2023-09-18T13:03:19;8.13;;;4.35;;
37407;SDS011;24866;50.248;8.252;2023-09-18T13:05:48;8.20;;;3.88;;
37407;SDS011;24866;50.248;8.252;2023-09-18T13:08:22;8.90;;;4.28;;
37407;SDS011;24866;50.248;8.252;2023-09-18T13:10:53;4.72;;;3.00;;
37407;SDS011;24866;50.248;8.252;2023-09-18T13:13:23;5.72;;;4.03;;
37407;SDS011;24866;50.248;8.252;2023-09-18T13:15:56;6.07;;;3.17;;
37407;SDS011;24866;50.248;8.252;2023-09-18T13:18:29;5.35;;;3.38;;
37407;SDS011;24866;50.248;8.252;2023-09-18T13:20:59;8.27;;;3.22;;
37407;SDS011;24866;50.248;8.252;2023-09-18T13:23:29;6.10;;;2.83;;
37407;SDS011;24866;50.248;8.252;2023-09-18T13:26:00;7.95;;;3.17;;
37407;SDS011;24866;50.248;8.252;2023-09-18T13:31:03;6.38;;;2.80;;
37407;SDS011;24866;50.248;8.252;2023-09-18T13:33:39;7.18;;;2.85;;
37407;SDS011;24866;50.248;8.252;2023-09-18T13:36:12;7.68;;;2.03;;
37407;SDS011;24866;50.248;8.252;2023-09-18T13:38:43;5.80;;;2.38;;
37407;SDS011;24866;50.248;8.252;2023-09-18T13:41:13;3.75;;;1.70;;
37407;SDS011;24866;50.248;8.252;2023-09-18T13:43:44;5.53;;;2.08;;
37407;SDS011;24866;50.248;8.252;2023-09-18T13:46:15;4.93;;;1.80;;
37407;SDS011;24866;50.248;8.252;2023-09-18T13:48:47;4.53;;;1.92;;
37407;SDS011;24866;50.248;8.252;2023-09-18T13:51:17;3.67;;;1.73;;
37407;SDS011;24866;50.248;8.252;2023-09-18T13:53:47;3.00;;;1.55;;
37407;SDS011;24866;50.248;8.252;2023-09-18T13:56:17;3.47;;;1.73;;
37407;SDS011;24866;50.248;8.252;2023-09-18T13:58:48;6.73;;;1.50;;
37407;SDS011;24866;50.248;8.252;2023-09-18T14:01:19;5.57;;;1.80;;
37407;SDS011;24866;50.248;8.252;2023-09-18T14:03:51;5.75;;;1.42;;
37407;SDS011;24866;50.248;8.252;2023-09-18T14:06:21;5.17;;;1.97;;
37407;SDS011;24866;50.248;8.252;2023-09-18T14:08:51;6.28;;;1.75;;
37407;SDS011;24866;50.248;8.252;2023-09-18T14:11:21;3.95;;;1.58;;
37407;SDS011;24866;50.248;8.252;2023-09-18T14:13:51;4.75;;;1.95;;
37407;SDS011;24866;50.248;8.252;2023-09-18T14:16:21;2.80;;;1.45;;
37407;SDS011;24866;50.248;8.252;2023-09-18T14:18:54;3.88;;;1.50;;
37407;SDS011;24866;50.248;8.252;2023-09-18T14:21:24;3.28;;;1.40;;
37407;SDS011;24866;50.248;8.252;2023-09-18T14:23:58;4.63;;;1.52;;
37407;SDS011;24866;50.248;8.252;2023-09-18T14:26:28;4.57;;;1.70;;
37407;SDS011;24866;50.248;8.252;2023-09-18T14:28:58;5.72;;;1.77;;
37407;SDS011;24866;50.248;8.252;2023-09-18T14:31:28;3.15;;;1.38;;
37407;SDS011;24866;50.248;8.252;2023-09-18T14:33:59;4.53;;;1.80;;
37407;SDS011;24866;50.248;8.252;2023-09-18T14:36:29;6.18;;;1.95;;
37407;SDS011;24866;50.248;8.252;2023-09-18T14:39:00;2.85;;;1.45;;
37407;SDS011;24866;50.248;8.252;2023-09-18T14:41:30;4.53;;;1.40;;
37407;SDS011;24866;50.248;8.252;2023-09-18T14:44:00;7.45;;;2.20;;
37407;SDS011;24866;50.248;8.252;2023-09-18T14:46:32;3.72;;;1.70;;
37407;SDS011;24866;50.248;8.252;2023-09-18T14:49:04;3.58;;;1.80;;
37407;SDS011;24866;50.248;8.252;2023-09-18T14:51:35;5.40;;;1.63;;
37407;SDS011;24866;50.248;8.252;2023-09-18T14:54:05;7.18;;;1.55;;
37407;SDS011;24866;50.248;8.252;2023-09-18T14:56:36;4.07;;;1.60;;
37407;SDS011;24866;50.248;8.252;2023-09-18T14:59:06;5.10;;;1.70;;
37407;SDS011;24866;50.248;8.252;2023-09-18T15:01:36;4.13;;;1.40;;
37407;SDS011;24866;50.248;8.252;2023-09-18T15:04:08;4.45;;;1.77;;
37407;SDS011;24866;50.248;8.252;2023-09-18T15:06:38;4.82;;;1.75;;
37407;SDS011;24866;50.248;8.252;2023-09-18T15:09:08;4.75;;;1.90;;
37407;SDS011;24866;50.248;8.252;2023-09-18T15:11:38;7.30;;;1.60;;
37407;SDS011;24866;50.248;8.252;2023-09-18T15:14:08;5.03;;;1.75;;
37407;SDS011;24866;50.248;8.252;2023-09-18T15:16:38;5.43;;;1.83;;
37407;SDS011;24866;50.248;8.252;2023-09-18T15:19:09;5.07;;;1.52;;
37407;SDS011;24866;50.248;8.252;2023-09-18T15:21:39;4.90;;;2.15;;
37407;SDS011;24866;50.248;8.252;2023-09-18T15:24:09;4.30;;;1.40;;